Time;durP1;ratioP1;P1;durP2;ratioP2;P2;SDS_P1;SDS_P2;PMS_P1;PMS_P2;Temp;Humidity;BMP_temperature;BMP_pressure;BME280_temperature;BME280_humidity;BME280_pressure;Samples;Min_cycle;Max_cycle;Signal;HPM_P1;HPM_P2
2023/02/10 00:09:42;;;;;;;31.23;20.27;;;5.60;99.90;;;;;;4940796;28;20521;-81
2023/02/10 00:18:48;;;;;;;29.40;20.67;;;5.70;99.90;;;;;;4935157;29;21005;-81
2023/02/10 00:21:49;;;;;;;29.67;19.90;;;5.60;99.90;;;;;;4932885;29;21192;-82
2023/02/10 00:28:48;;;;;;;29.87;20.43;;;5.50;99.90;;;;;;4902727;29;20454;-81
2023/02/10 00:31:32;;;;;;;28.23;21.43;;;5.60;99.90;;;;;;4883611;29;20493;-82
2023/02/10 00:34:27;;;;;;;30.10;21.73;;;5.60;99.90;;;;;;4918296;28;20861;-81
2023/02/10 00:40:20;;;;;;;29.77;20.80;;;5.60;99.90;;;;;;4922923;29;20466;-81
2023/02/10 00:43:36;;;;;;;35.10;23.30;;;5.60;99.90;;;;;;4945579;28;20552;-82
2023/02/10 00:47:14;;;;;;;;;;;;;;;;;;;;;
2023/02/10 00:50:03;;;;;;;36.33;25.53;;;5.80;99.90;;;;;;4923067;28;20469;-81
2023/02/10 00:52:40;;;;;;;32.77;22.80;;;5.70;99.90;;;;;;4931920;29;20462;-81
2023/02/10 00:55:13;;;;;;;37.40;25.20;;;5.60;99.90;;;;;;4943855;28;20529;-81
2023/02/10 00:57:41;;;;;;;29.73;23.37;;;5.60;99.90;;;;;;4962383;28;20481;-82
2023/02/10 01:00:14;;;;;;;36.47;25.10;;;5.50;99.90;;;;;;4935008;29;20458;-80
2023/02/10 01:02:52;;;;;;;32.80;23.17;;;5.50;99.90;;;;;;4927440;29;20445;-81
2023/02/10 01:05:21;;;;;;;38.80;25.67;;;5.50;99.90;;;;;;4928124;28;20541;-80
2023/02/10 01:07:52;;;;;;;37.30;24.53;;;5.60;99.90;;;;;;4941577;28;20551;-80
2023/02/10 01:10:48;;;;;;;35.90;24.23;;;5.40;99.90;;;;;;4936826;28;20438;-80
2023/02/10 01:13:30;;;;;;;32.47;22.30;;;5.60;99.90;;;;;;4927819;29;20491;-79
2023/02/10 01:16:09;;;;;;;31.30;21.77;;;5.60;99.90;;;;;;4929163;29;20453;-81
2023/02/10 01:18:45;;;;;;;34.53;23.83;;;5.70;99.90;;;;;;4926220;28;20490;-80
2023/02/10 01:21:19;;;;;;;32.63;22.63;;;5.70;99.90;;;;;;4928940;29;20533;-80
2023/02/10 01:24:01;;;;;;;32.03;21.73;;;5.80;99.90;;;;;;4924789;28;20868;-81
2023/02/10 01:26:37;;;;;;;34.87;21.90;;;5.70;99.90;;;;;;4942283;28;20452;-80
2023/02/10 01:29:23;;;;;;;31.20;22.43;;;5.70;99.90;;;;;;4926873;29;20994;-79
2023/02/10 01:32:09;;;;;;;29.33;21.80;;;5.70;99.90;;;;;;4907625;28;20457;-81
2023/02/10 01:34:44;;;;;;;28.47;20.43;;;5.50;99.90;;;;;;4928449;29;20503;-82
2023/02/10 01:37:15;;;;;;;31.60;20.00;;;5.60;99.90;;;;;;4926638;28;20468;-81
2023/02/10 01:39:56;;;;;;;27.47;20.80;;;5.70;99.90;;;;;;4924363;29;20493;-81
2023/02/10 01:42:31;;;;;;;29.70;20.37;;;5.80;99.90;;;;;;4926450;29;20453;-81
2023/02/10 01:46:24;;;;;;;32.80;20.17;;;5.80;99.90;;;;;;4926451;29;20472;-81
2023/02/10 01:49:39;;;;;;;27.57;19.10;;;5.80;99.90;;;;;;4863159;29;20467;-81
2023/02/10 01:55:59;;;;;;;31.87;20.73;;;5.70;99.90;;;;;;4939293;23;21015;-82
2023/02/10 01:58:44;;;;;;;33.10;20.80;;;5.70;99.90;;;;;;4937226;28;20470;-82
2023/02/10 02:01:44;;;;;;;28.23;21.40;;;5.70;99.90;;;;;;4926900;29;20413;-81
2023/02/10 02:05:57;;;;;;;33.30;20.90;;;5.60;99.90;;;;;;4925491;29;20496;-81
2023/02/10 02:09:33;;;;;;;31.90;21.23;;;5.70;99.90;;;;;;4841259;29;20453;-81
2023/02/10 02:12:57;;;;;;;27.47;21.10;;;5.70;99.90;;;;;;4887509;29;20653;-81
2023/02/10 02:16:18;;;;;;;;;;;;;;;;;;;;;
2023/02/10 02:23:22;;;;;;;35.30;20.90;;;5.50;99.90;;;;;;4888742;29;21228;-83
2023/02/10 02:26:44;;;;;;;30.13;21.10;;;5.50;99.90;;;;;;4907384;29;20441;-81
2023/02/10 02:30:12;;;;;;;;;;;;;;;;;;;;;
2023/02/10 02:33:46;;;;;;;31.00;20.00;;;5.40;99.90;;;;;;4888327;29;20522;-82
2023/02/10 02:40:34;;;;;;;33.67;20.90;;;5.40;99.90;;;;;;4795699;29;20510;-82
2023/02/10 02:43:48;;;;;;;30.43;21.80;;;5.50;99.90;;;;;;4840407;23;20909;-81
2023/02/10 02:47:14;;;;;;;32.37;21.50;;;5.70;99.90;;;;;;4899169;29;20471;-81
2023/02/10 02:50:50;;;;;;;33.67;22.10;;;5.80;99.90;;;;;;4850161;29;20467;-81
2023/02/10 02:54:18;;;;;;;32.87;19.47;;;5.70;99.90;;;;;;4820387;29;20542;-82
2023/02/10 02:57:58;;;;;;;32.87;21.73;;;5.90;99.90;;;;;;4827615;29;20541;-81
2023/02/10 03:02:01;;;;;;;;;;;;;;;;;;;;;
2023/02/10 03:04:43;;;;;;;28.43;19.87;;;5.90;99.90;;;;;;4826304;29;20474;-81
2023/02/10 03:07:43;;;;;;;31.30;20.37;;;6.00;99.90;;;;;;4841948;29;20448;-82
2023/02/10 03:10:29;;;;;;;;;;;;;;;;;;;;;
2023/02/10 03:13:42;;;;;;;;;;;;;;;;;;;;;
2023/02/10 03:17:05;;;;;;;29.07;21.47;;;5.90;99.90;;;;;;4809957;29;20466;-81
2023/02/10 03:19:58;;;;;;;28.70;20.07;;;5.80;99.90;;;;;;4803868;29;20499;-81
2023/02/10 03:29:52;;;;;;;31.03;21.33;;;5.80;99.90;;;;;;4877317;29;20450;-80
2023/02/10 03:33:39;;;;;;;32.83;21.00;;;5.80;99.90;;;;;;4880592;29;20448;-80
2023/02/10 03:36:46;;;;;;;29.90;21.43;;;5.80;99.90;;;;;;4838000;29;20457;-81
2023/02/10 03:39:34;;;;;;;29.20;20.03;;;6.00;99.90;;;;;;4823822;29;20996;-79
2023/02/10 03:42:43;;;;;;;31.90;20.37;;;6.00;99.90;;;;;;4766144;29;20480;-79
2023/02/10 03:46:13;;;;;;;27.60;19.37;;;5.90;99.90;;;;;;4188505;26;20489;-80
2023/02/10 03:49:16;;;;;;;32.33;20.43;;;5.90;99.90;;;;;;4913478;29;20473;-81
2023/02/10 03:52:06;;;;;;;27.70;20.20;;;5.80;99.90;;;;;;4930342;28;20468;-81
2023/02/10 03:54:48;;;;;;;32.03;20.87;;;5.70;99.90;;;;;;4937154;28;20481;-81
2023/02/10 03:57:47;;;;;;;29.77;20.37;;;5.70;99.90;;;;;;4884948;29;20469;-81
2023/02/10 04:00:34;;;;;;;29.50;20.60;;;5.70;99.90;;;;;;4869378;29;22644;-81
2023/02/10 04:04:06;;;;;;;;;;;;;;;;;;;;;
2023/02/10 04:07:03;;;;;;;31.27;21.50;;;5.70;99.90;;;;;;4841611;29;20476;-80
2023/02/10 04:13:24;;;;;;;36.40;23.03;;;5.70;99.90;;;;;;4832310;23;20866;-80
2023/02/10 04:17:00;;;;;;;39.33;22.93;;;5.60;99.90;;;;;;4922723;28;20454;-80
2023/02/10 04:19:43;;;;;;;40.47;22.43;;;5.60;99.90;;;;;;4900909;29;20493;-80
2023/02/10 04:27:09;;;;;;;35.83;21.53;;;5.50;99.90;;;;;;4882059;29;20483;-81
2023/02/10 04:34:05;;;;;;;30.80;20.13;;;5.40;99.90;;;;;;4824591;29;20488;-82
2023/02/10 04:44:13;;;;;;;27.30;20.10;;;5.00;99.90;;;;;;4786279;29;20458;-82
2023/02/10 04:51:18;;;;;;;;;;;;;;;;;;;;;
2023/02/10 04:54:06;;;;;;;30.10;20.17;;;4.80;99.90;;;;;;4770795;29;20441;-81
2023/02/10 04:56:54;;;;;;;33.80;21.00;;;4.80;99.90;;;;;;4787938;29;21123;-81
2023/02/10 05:04:06;;;;;;;;;;;;;;;;;;;;;
2023/02/10 05:07:18;;;;;;;30.20;20.83;;;4.80;99.90;;;;;;4738825;30;20446;-82
2023/02/10 05:10:20;;;;;;;34.30;20.67;;;5.20;99.90;;;;;;4729708;30;20472;-82
2023/02/10 05:13:52;;;;;;;;;;;;;;;;;;;;;
2023/02/10 05:18:28;;;;;;;;;;;;;;;;;;;;;
2023/02/10 05:25:33;;;;;;;35.20;21.80;;;4.70;99.90;;;;;;4861526;29;20480;-82
2023/02/10 05:32:05;;;;;;;;;;;;;;;;;;;;;
2023/02/10 05:35:25;;;;;;;32.77;19.83;;;5.00;99.90;;;;;;4907376;29;20498;-82
2023/02/10 05:42:02;;;;;;;31.80;19.37;;;4.70;99.90;;;;;;4918456;28;20469;-81
2023/02/10 05:45:08;;;;;;;27.03;18.97;;;4.80;99.90;;;;;;4915596;29;20479;-82
2023/02/10 05:48:37;;;;;;;37.23;22.63;;;4.80;99.90;;;;;;4854857;29;20429;-83
2023/02/10 05:52:15;;;;;;;33.07;21.17;;;4.70;99.90;;;;;;4855580;29;20461;-80
2023/02/10 05:58:35;;;;;;;47.77;23.10;;;4.70;99.90;;;;;;4852320;29;20473;-82
2023/02/10 06:01:49;;;;;;;33.07;20.87;;;4.60;99.90;;;;;;4866213;29;21751;-81
2023/02/10 06:05:45;;;;;;;41.60;21.90;;;4.60;99.90;;;;;;5146555;23;20492;-82
2023/02/10 06:09:08;;;;;;;38.17;21.63;;;4.70;99.90;;;;;;4936532;29;20541;-82
2023/02/10 06:12:00;;;;;;;29.73;19.80;;;4.50;99.90;;;;;;4948134;28;20441;-81
2023/02/10 06:15:05;;;;;;;39.40;22.50;;;4.30;99.90;;;;;;4904142;28;20465;-82
2023/02/10 06:22:39;;;;;;;35.00;20.53;;;4.50;99.90;;;;;;4940021;28;20440;-81
2023/02/10 06:28:48;;;;;;;31.97;20.37;;;4.40;99.90;;;;;;4942941;28;20459;-82
2023/02/10 06:32:16;;;;;;;43.03;27.30;;;4.40;99.90;;;;;;4949361;28;20484;-80
2023/02/10 06:35:37;;;;;;;38.03;21.00;;;4.20;99.90;;;;;;5002607;23;21653;-81
2023/02/10 06:38:45;;;;;;;32.33;21.10;;;4.30;99.90;;;;;;4917765;28;20433;-81
2023/02/10 06:45:20;;;;;;;30.80;21.30;;;4.10;99.90;;;;;;4856098;29;20468;-82
2023/02/10 06:48:59;;;;;;;29.77;19.57;;;4.00;99.90;;;;;;4842331;29;20440;-82
2023/02/10 06:56:16;;;;;;;30.07;18.87;;;4.40;99.90;;;;;;4921298;28;21196;-83
2023/02/10 06:59:22;;;;;;;30.60;18.97;;;4.20;99.90;;;;;;4929571;28;20461;-82
2023/02/10 07:02:25;;;;;;;28.10;18.63;;;4.10;99.90;;;;;;4921086;29;20560;-82
2023/02/10 07:05:49;;;;;;;29.97;18.63;;;4.20;99.90;;;;;;4848044;29;20446;-81
2023/02/10 07:09:31;;;;;;;26.03;18.20;;;4.40;99.90;;;;;;4804829;29;20439;-82
2023/02/10 07:20:57;;;;;;;40.20;21.63;;;4.60;99.90;;;;;;4957785;28;20472;-81
2023/02/10 07:23:54;;;;;;;30.57;20.90;;;4.50;99.90;;;;;;4974977;28;20540;-80
2023/02/10 07:27:17;;;;;;;29.80;19.77;;;4.50;99.90;;;;;;4932774;28;20473;-81
2023/02/10 07:30:27;;;;;;;34.00;20.30;;;4.40;99.90;;;;;;4938531;28;21007;-81
2023/02/10 07:33:49;;;;;;;32.30;20.67;;;4.40;99.90;;;;;;4918091;29;20511;-82
2023/02/10 07:37:09;;;;;;;29.83;20.70;;;4.60;99.90;;;;;;4904055;29;20541;-82
2023/02/10 07:40:52;;;;;;;29.63;20.57;;;4.60;99.90;;;;;;4902876;29;20896;-81
2023/02/10 07:44:16;;;;;;;27.67;19.57;;;4.40;99.90;;;;;;4804410;29;20490;-81
2023/02/10 07:47:08;;;;;;;38.97;19.63;;;4.40;99.90;;;;;;4939985;28;20969;-81
2023/02/10 07:49:53;;;;;;;34.40;20.50;;;4.50;99.90;;;;;;4942008;28;20461;-80
2023/02/10 07:52:41;;;;;;;35.67;19.90;;;4.60;99.90;;;;;;4939753;28;20473;-82
2023/02/10 07:55:36;;;;;;;34.83;20.10;;;4.60;99.90;;;;;;4955754;28;20543;-82
2023/02/10 07:58:36;;;;;;;37.70;22.57;;;4.60;99.90;;;;;;4940849;29;20468;-82
2023/02/10 08:05:18;;;;;;;28.33;21.03;;;4.60;99.90;;;;;;4919134;29;20557;-82
2023/02/10 08:08:00;;;;;;;32.87;20.10;;;4.90;99.90;;;;;;4931180;29;20463;-80
2023/02/10 08:10:46;;;;;;;33.17;20.90;;;4.80;99.90;;;;;;4879051;29;20457;-81
2023/02/10 08:13:59;;;;;;;37.00;22.10;;;4.80;99.90;;;;;;4882948;29;20480;-81
2023/02/10 08:16:41;;;;;;;37.57;18.97;;;4.90;99.90;;;;;;4870022;29;20480;-81
2023/02/10 08:19:36;;;;;;;33.00;20.17;;;4.80;99.90;;;;;;4898369;29;21992;-82
2023/02/10 08:22:42;;;;;;;33.40;19.67;;;4.70;99.90;;;;;;4890550;29;20482;-82
2023/02/10 08:26:01;;;;;;;29.07;20.17;;;4.80;99.90;;;;;;4868499;29;20535;-80
2023/02/10 08:29:17;;;;;;;30.03;18.60;;;4.80;99.90;;;;;;4847081;29;20458;-80
2023/02/10 08:36:29;;;;;;;;;;;;;;;;;;;;;
2023/02/10 08:43:37;;;;;;;36.70;21.17;;;5.00;99.90;;;;;;4933179;29;21203;-82
2023/02/10 08:47:04;;;;;;;30.27;19.57;;;5.10;99.90;;;;;;4937648;28;20444;-81
2023/02/10 08:49:59;;;;;;;31.03;18.83;;;5.10;99.90;;;;;;4953708;28;20490;-82
2023/02/10 09:01:31;;;;;;;30.17;19.47;;;5.50;99.90;;;;;;4833878;29;20630;-81
2023/02/10 09:04:29;;;;;;;34.17;21.10;;;5.40;99.90;;;;;;4822104;29;20593;-80
2023/02/10 09:10:32;;;;;;;33.50;20.67;;;5.50;99.90;;;;;;4759172;29;20473;-83
2023/02/10 09:17:30;;;;;;;35.23;21.70;;;5.50;99.90;;;;;;4741771;30;20501;-82
2023/02/10 09:20:15;;;;;;;33.07;18.60;;;5.40;99.90;;;;;;4725199;30;20590;-82
2023/02/10 09:23:15;;;;;;;28.30;19.37;;;5.30;99.90;;;;;;4673539;30;21691;-82
2023/02/10 09:27:07;;;;;;;30.27;18.57;;;5.20;99.90;;;;;;4725551;29;20563;-81
2023/02/10 09:30:17;;;;;;;34.70;21.27;;;5.20;99.90;;;;;;4789878;29;20472;-81
2023/02/10 09:36:45;;;;;;;34.80;20.47;;;5.20;99.90;;;;;;4930560;23;20553;-81
2023/02/10 09:39:54;;;;;;;30.97;18.40;;;5.30;99.90;;;;;;4923423;29;20524;-81
2023/02/10 09:43:31;;;;;;;36.13;20.27;;;5.50;99.90;;;;;;4882597;29;20439;-81
2023/02/10 09:47:18;;;;;;;;;;;;;;;;;;;;;
2023/02/10 09:50:35;;;;;;;29.40;18.53;;;5.90;99.90;;;;;;4893722;29;20444;-81
2023/02/10 09:53:32;;;;;;;34.77;19.47;;;6.20;99.90;;;;;;4804064;29;20475;-81
2023/02/10 09:57:07;;;;;;;27.47;18.50;;;6.40;99.90;;;;;;4779197;29;20512;-80
2023/02/10 10:00:06;;;;;;;23.90;17.27;;;6.50;99.90;;;;;;4806729;29;20580;-81
2023/02/10 10:03:19;;;;;;;26.77;18.63;;;7.30;99.90;;;;;;4764901;29;20472;-82
2023/02/10 10:06:41;;;;;;;31.83;18.53;;;8.10;98.10;;;;;;4797388;29;20495;-81
2023/02/10 10:10:34;;;;;;;25.80;17.57;;;9.00;96.70;;;;;;4785872;29;20466;-81
2023/02/10 10:13:41;;;;;;;25.63;18.03;;;11.00;93.30;;;;;;4775002;29;21046;-81
2023/02/10 10:17:01;;;;;;;25.13;17.00;;;11.90;89.10;;;;;;4758517;30;20486;-81
2023/02/10 10:20:41;;;;;;;;;;;;;;;;;;;;;
2023/02/10 10:24:02;;;;;;;29.23;18.77;;;10.70;88.30;;;;;;4778218;29;20499;-81
2023/02/10 10:27:19;;;;;;;26.60;16.70;;;10.10;90.60;;;;;;4777752;29;20545;-81
2023/02/10 10:30:59;;;;;;;29.57;19.57;;;9.40;92.20;;;;;;4861531;29;20560;-81
2023/02/10 10:34:17;;;;;;;29.17;17.67;;;8.80;94.10;;;;;;4932629;29;20536;-81
2023/02/10 10:41:08;;;;;;;26.00;17.10;;;8.10;96.30;;;;;;4922488;29;20485;-81
2023/02/10 10:44:12;;;;;;;26.70;16.83;;;8.10;96.90;;;;;;4935705;28;21579;-81
2023/02/10 10:47:23;;;;;;;28.90;19.07;;;8.00;97.20;;;;;;4926379;29;20489;-81
2023/02/10 10:50:34;;;;;;;29.10;18.40;;;8.00;97.30;;;;;;4869005;29;20931;-80
2023/02/10 10:53:49;;;;;;;33.40;19.70;;;8.20;97.50;;;;;;4844915;29;20481;-81
2023/02/10 10:57:19;;;;;;;25.83;16.07;;;8.30;97.40;;;;;;4868855;29;20464;-80
2023/02/10 11:04:11;;;;;;;33.10;18.00;;;8.30;97.10;;;;;;4787974;29;20475;-82
2023/02/10 11:07:15;;;;;;;27.63;17.10;;;8.20;96.90;;;;;;4777647;29;20917;-79
2023/02/10 11:10:28;;;;;;;29.53;17.90;;;8.40;97.00;;;;;;4788860;29;20499;-80
2023/02/10 11:13:57;;;;;;;30.73;17.47;;;8.40;97.10;;;;;;4792180;29;20478;-81
2023/02/10 11:17:48;;;;;;;25.93;17.70;;;8.50;96.80;;;;;;4793691;29;20499;-79
2023/02/10 11:21:16;;;;;;;30.27;18.83;;;8.50;96.80;;;;;;4750692;29;21010;-80
2023/02/10 11:25:02;;;;;;;29.57;17.53;;;8.60;96.50;;;;;;4956986;28;20483;-81
2023/02/10 11:28:18;;;;;;;26.07;16.90;;;8.60;96.60;;;;;;4975605;28;20462;-80
2023/02/10 11:31:31;;;;;;;;;;;;;;;;;;;;;
2023/02/10 11:34:55;;;;;;;29.43;19.33;;;8.70;96.40;;;;;;4891823;29;20517;-80
2023/02/10 11:38:17;;;;;;;31.40;17.30;;;8.70;96.60;;;;;;4888736;29;20479;-80
2023/02/10 11:45:52;;;;;;;28.53;18.30;;;8.90;96.60;;;;;;4873729;29;20479;-78
2023/02/10 11:49:21;;;;;;;33.33;19.10;;;9.30;96.50;;;;;;4889384;29;20471;-78
2023/02/10 11:52:23;;;;;;;30.43;18.60;;;9.70;95.80;;;;;;4889054;29;20479;-79
2023/02/10 11:55:49;;;;;;;35.60;19.60;;;9.70;95.30;;;;;;4845959;29;20642;-78
2023/02/10 11:59:19;;;;;;;27.30;16.77;;;9.90;94.60;;;;;;4834824;29;20487;-78
2023/02/10 12:02:45;;;;;;;38.70;20.50;;;10.10;93.70;;;;;;4858903;29;20464;-79
2023/02/10 12:05:49;;;;;;;37.13;19.73;;;10.00;93.30;;;;;;4877429;29;20475;-81
2023/02/10 12:09:14;;;;;;;;;;;;;;;;;;;;;
2023/02/10 12:12:43;;;;;;;31.93;18.50;;;9.40;94.80;;;;;;4886695;29;20520;-80
2023/02/10 12:15:54;;;;;;;31.43;18.37;;;9.20;95.10;;;;;;4831863;29;20473;-80
2023/02/10 12:19:13;;;;;;;28.90;18.20;;;9.10;95.20;;;;;;4891381;29;20479;-80
2023/02/10 12:21:52;;;;;;;39.30;20.13;;;9.30;95.30;;;;;;4876833;29;20578;-79
2023/02/10 12:24:28;;;;;;;26.87;18.70;;;9.50;94.70;;;;;;4875861;29;20487;-82
2023/02/10 12:27:03;;;;;;;28.23;19.00;;;9.60;94.60;;;;;;4908818;29;20864;-82
2023/02/10 12:30:06;;;;;;;29.23;17.83;;;9.60;94.30;;;;;;4930031;28;20481;-80
2023/02/10 12:32:41;;;;;;;29.93;19.30;;;9.50;94.10;;;;;;4930199;28;20461;-81
2023/02/10 12:35:20;;;;;;;32.20;18.90;;;9.40;94.00;;;;;;4932860;28;20592;-81
2023/02/10 12:37:51;;;;;;;61.37;21.10;;;9.30;93.90;;;;;;4936873;29;20458;-82
2023/02/10 12:40:25;;;;;;;28.30;18.70;;;9.40;93.90;;;;;;4931349;29;20544;-82
2023/02/10 12:43:00;;;;;;;28.80;18.10;;;9.40;93.70;;;;;;4935442;29;20538;-80
2023/02/10 12:45:49;;;;;;;24.70;15.77;;;9.30;93.80;;;;;;4931898;28;20540;-82
2023/02/10 12:48:43;;;;;;;25.57;15.20;;;9.30;93.90;;;;;;4916433;29;20813;-80
2023/02/10 12:51:31;;;;;;;27.23;17.80;;;9.30;93.70;;;;;;4909840;29;20529;-80
2023/02/10 12:54:04;;;;;;;19.50;13.90;;;9.30;93.10;;;;;;4922437;29;21279;-79
2023/02/10 12:56:44;;;;;;;25.63;15.27;;;9.40;91.80;;;;;;4934618;28;20469;-78
2023/02/10 12:59:22;;;;;;;26.23;16.00;;;9.50;90.70;;;;;;4926252;29;20457;-79
2023/02/10 13:02:13;;;;;;;18.07;11.53;;;9.30;90.60;;;;;;4924157;29;21011;-80
2023/02/10 13:04:49;;;;;;;55.77;15.30;;;9.10;90.30;;;;;;4938016;28;20481;-81
2023/02/10 13:07:29;;;;;;;15.40;12.80;;;9.10;89.80;;;;;;4935619;28;21675;-81
2023/02/10 13:10:09;;;;;;;16.53;11.87;;;9.10;89.60;;;;;;4934210;28;20466;-80
2023/02/10 13:12:40;;;;;;;22.93;15.40;;;9.10;89.40;;;;;;4929793;28;21011;-81
2023/02/10 13:15:27;;;;;;;21.53;14.00;;;9.10;89.40;;;;;;4916735;29;20491;-81
2023/02/10 13:17:54;;;;;;;23.53;13.70;;;9.00;90.20;;;;;;4929639;29;20468;-81
2023/02/10 13:20:28;;;;;;;23.27;13.80;;;9.20;90.60;;;;;;4932246;28;20519;-81
2023/02/10 13:23:34;;;;;;;77.93;21.03;;;9.80;89.80;;;;;;4934847;28;20828;-81
2023/02/10 13:26:37;;;;;;;20.93;14.03;;;9.90;88.00;;;;;;4934654;29;20560;-80
2023/02/10 13:29:30;;;;;;;21.60;15.10;;;9.70;88.90;;;;;;4945119;28;20683;-80
2023/02/10 13:32:33;;;;;;;22.30;15.67;;;9.50;90.00;;;;;;4957885;28;20489;-79
2023/02/10 14:04:00;;;;;;;28.10;16.70;;;9.30;90.90;;;;;;3286998;23;20483;-80
2023/02/10 14:08:00;;;;;;;21.70;14.50;;;9.40;91.20;;;;;;4949731;28;20434;-80
2023/02/10 14:15:21;;;;;;;26.20;15.23;;;9.40;90.50;;;;;;4857930;29;20481;-79
2023/02/10 14:18:16;;;;;;;26.07;15.03;;;9.80;90.20;;;;;;4881677;29;20573;-81
2023/02/10 14:21:46;;;;;;;21.67;15.67;;;9.90;88.50;;;;;;4898477;29;20531;-80
2023/02/10 14:24:44;;;;;;;21.77;14.30;;;9.70;88.90;;;;;;4983553;23;20474;-79
2023/02/10 14:28:09;;;;;;;;;;;;;;;;;;;;;
2023/02/10 14:31:31;;;;;;;20.90;14.70;;;10.30;85.40;;;;;;4956865;28;20467;-80
2023/02/10 14:34:29;;;;;;;17.93;13.10;;;10.30;84.00;;;;;;4955155;28;20473;-79
2023/02/10 14:38:05;;;;;;;22.23;13.70;;;10.30;83.90;;;;;;4965466;28;20484;-81
2023/02/10 14:41:15;;;;;;;16.70;12.23;;;10.00;85.00;;;;;;4951033;28;20491;-81
2023/02/10 14:44:23;;;;;;;21.20;14.03;;;9.70;87.40;;;;;;4904162;29;21031;-81
2023/02/10 14:47:55;;;;;;;;;;;;;;;;;;;;;
2023/02/10 14:50:46;;;;;;;19.13;13.00;;;9.70;88.50;;;;;;4953358;28;20452;-80
2023/02/10 14:54:04;;;;;;;19.07;14.03;;;9.60;88.50;;;;;;4961792;28;20471;-80
2023/02/10 14:57:09;;;;;;;18.83;12.00;;;9.60;88.40;;;;;;4956395;28;20495;-80
2023/02/10 15:04:11;;;;;;;;;;;;;;;;;;;;;
2023/02/10 15:07:22;;;;;;;15.73;11.53;;;9.70;88.90;;;;;;4937365;28;20462;-80
2023/02/10 15:14:01;;;;;;;15.93;11.30;;;9.90;88.00;;;;;;4934742;28;22275;-81
2023/02/10 15:16:57;;;;;;;15.00;11.87;;;9.70;88.10;;;;;;4903587;29;21100;-81
2023/02/10 15:20:31;;;;;;;17.53;12.40;;;9.60;88.30;;;;;;4814310;29;20447;-79
2023/02/10 15:23:38;;;;;;;15.67;11.70;;;9.60;89.30;;;;;;4813271;29;20470;-79
2023/02/10 15:26:49;;;;;;;;;;;;;;;;;;;;;
2023/02/10 15:30:23;;;;;;;;;;;;;;;;;;;;;
2023/02/10 15:33:48;;;;;;;16.77;12.40;;;9.40;89.30;;;;;;4813344;29;20507;-81
2023/02/10 15:37:10;;;;;;;18.50;12.33;;;9.40;89.50;;;;;;4816583;29;20554;-81
2023/02/10 15:41:15;;;;;;;16.33;11.17;;;9.40;90.00;;;;;;4788138;29;20568;-81
2023/02/10 15:44:41;;;;;;;;;;;;;;;;;;;;;
2023/02/10 15:48:00;;;;;;;19.30;13.37;;;9.60;90.10;;;;;;4919816;28;20465;-82
2023/02/10 15:50:58;;;;;;;;;;;;;;;;;;;;;
2023/02/10 15:54:15;;;;;;;15.93;11.67;;;9.40;90.40;;;;;;4936375;29;20455;-79
2023/02/10 16:00:55;;;;;;;16.60;11.20;;;9.30;90.80;;;;;;4863651;29;20492;-81
2023/02/10 16:07:13;;;;;;;23.83;13.10;;;9.20;91.10;;;;;;4867342;29;20485;-80
2023/02/10 16:10:09;;;;;;;15.63;11.00;;;9.20;91.20;;;;;;4871473;29;20494;-79
2023/02/10 16:16:21;;;;;;;17.73;11.70;;;9.10;91.50;;;;;;4896666;29;20454;-79
2023/02/10 16:19:33;;;;;;;17.63;13.10;;;9.20;91.70;;;;;;4931837;29;20437;-79
2023/02/10 16:23:18;;;;;;;17.77;11.97;;;9.20;91.80;;;;;;4921216;29;20493;-80
2023/02/10 16:26:25;;;;;;;15.80;11.23;;;9.20;91.80;;;;;;4849613;29;20508;-80
2023/02/10 16:29:19;;;;;;;18.50;11.43;;;9.10;91.90;;;;;;4837195;29;20516;-78
2023/02/10 16:32:04;;;;;;;16.37;12.57;;;9.10;92.00;;;;;;4880547;29;20586;-82
2023/02/10 16:35:37;;;;;;;16.70;11.43;;;9.70;91.60;;;;;;4903184;29;20653;-79
2023/02/10 16:42:52;;;;;;;16.67;11.97;;;10.00;90.00;;;;;;4892686;29;20480;-80
2023/02/10 16:45:42;;;;;;;18.70;12.57;;;9.90;90.20;;;;;;4829947;29;20458;-80
2023/02/10 16:48:47;;;;;;;20.83;13.50;;;9.90;90.40;;;;;;4842601;29;20484;-78
2023/02/10 16:51:36;;;;;;;19.43;12.60;;;9.70;90.60;;;;;;4813164;29;20503;-80
2023/02/10 16:54:23;;;;;;;16.67;11.30;;;9.50;91.10;;;;;;4809680;29;20469;-79
2023/02/10 16:57:32;;;;;;;18.27;12.53;;;9.60;91.20;;;;;;4798975;29;20488;-80
2023/02/10 17:00:26;;;;;;;18.77;10.87;;;9.70;91.10;;;;;;4841239;29;20491;-81
2023/02/10 17:03:37;;;;;;;16.40;12.50;;;9.50;91.20;;;;;;4881470;29;20589;-81
2023/02/10 17:07:27;;;;;;;17.83;12.60;;;9.50;91.50;;;;;;4879159;29;20448;-80
2023/02/10 17:10:32;;;;;;;19.37;12.93;;;9.60;91.50;;;;;;4829636;29;20557;-80
2023/02/10 17:13:27;;;;;;;19.87;14.20;;;9.50;91.70;;;;;;4836588;29;21120;-80
2023/02/10 17:16:25;;;;;;;18.97;14.07;;;9.50;91.90;;;;;;4845148;29;21244;-81
2023/02/10 17:19:33;;;;;;;;;;;;;;;;;;;;;
2023/02/10 17:22:28;;;;;;;22.17;14.30;;;9.70;91.30;;;;;;4893628;28;20446;-79
2023/02/10 17:25:52;;;;;;;21.73;14.33;;;9.70;91.40;;;;;;4939060;28;20517;-80
2023/02/10 17:33:15;;;;;;;;;;;;;;;;;;;;;
2023/02/10 17:36:25;;;;;;;22.07;15.13;;;9.50;91.90;;;;;;4901404;29;20450;-80
2023/02/10 17:51:14;;;;;;;18.60;14.40;;;9.30;92.10;;;;;;4781126;27;10312443;-81
2023/02/10 17:54:04;;;;;;;20.30;14.60;;;8.60;93.90;;;;;;5108446;22;20307;-81
2023/02/10 17:56:50;;;;;;;19.90;13.63;;;8.70;93.90;;;;;;5065510;28;20462;-80
2023/02/10 17:59:53;;;;;;;21.60;15.33;;;8.50;94.00;;;;;;5050648;28;20434;-79
2023/02/10 18:02:55;;;;;;;26.80;16.07;;;8.40;94.20;;;;;;5066252;28;20447;-79
2023/02/10 18:06:00;;;;;;;27.13;15.50;;;8.40;94.50;;;;;;5062369;28;20470;-79
2023/02/10 18:09:00;;;;;;;23.37;15.87;;;8.60;94.60;;;;;;5063125;28;21124;-79
2023/02/10 18:12:11;;;;;;;19.43;15.67;;;8.70;94.50;;;;;;5064244;28;20478;-82
2023/02/10 18:15:05;;;;;;;22.27;16.27;;;8.80;94.30;;;;;;5061804;28;20475;-80
2023/02/10 18:18:03;;;;;;;24.43;15.87;;;8.90;94.40;;;;;;5064677;28;20438;-81
2023/02/10 18:21:05;;;;;;;25.40;16.67;;;9.30;94.10;;;;;;5070281;28;20454;-81
2023/02/10 18:24:01;;;;;;;21.47;14.10;;;9.30;93.70;;;;;;5037398;28;21102;-80
2023/02/10 18:27:03;;;;;;;23.50;15.43;;;9.40;93.50;;;;;;5066713;28;20539;-80
2023/02/10 18:37:29;;;;;;;21.00;14.87;;;9.00;94.40;;;;;;5022877;28;20459;-80
2023/02/10 18:44:31;;;;;;;21.70;15.13;;;9.00;95.10;;;;;;4986282;28;20425;-81
2023/02/10 18:48:05;;;;;;;;;;;;;;;;;;;;;
2023/02/10 18:50:53;;;;;;;21.67;15.33;;;8.70;95.80;;;;;;5010813;28;20489;-80
2023/02/10 18:53:51;;;;;;;21.37;15.73;;;8.60;96.20;;;;;;5009184;28;20466;-81
2023/02/10 18:56:34;;;;;;;24.60;15.43;;;8.60;96.40;;;;;;5040301;28;20506;-79
2023/02/10 18:59:01;;;;;;;23.70;15.40;;;8.60;96.70;;;;;;5082702;28;20439;-81
2023/02/10 19:01:28;;;;;;;25.93;16.77;;;8.70;97.00;;;;;;5064336;28;20463;-79
2023/02/10 19:04:04;;;;;;;22.97;16.90;;;8.70;96.90;;;;;;5050771;28;20542;-79
2023/02/10 19:06:38;;;;;;;22.70;15.23;;;8.60;97.00;;;;;;5048780;28;20465;-80
2023/02/10 19:09:09;;;;;;;24.33;16.70;;;8.60;97.20;;;;;;5050589;28;20478;-80
2023/02/10 19:11:35;;;;;;;24.77;17.27;;;8.50;97.50;;;;;;5054690;28;20516;-80
2023/02/10 19:14:02;;;;;;;25.40;16.90;;;8.50;97.70;;;;;;5048731;28;20479;-80
2023/02/10 19:16:29;;;;;;;26.70;16.80;;;8.50;97.80;;;;;;5052483;28;20440;-80
2023/02/10 19:18:59;;;;;;;26.63;16.90;;;8.50;98.00;;;;;;5048338;28;20943;-80
2023/02/10 19:21:26;;;;;;;22.47;16.10;;;8.50;98.10;;;;;;5048572;28;20436;-80
2023/02/10 19:23:55;;;;;;;30.10;17.37;;;8.50;98.20;;;;;;5048174;28;20468;-80
2023/02/10 19:26:22;;;;;;;24.20;17.23;;;9.00;98.40;;;;;;5047803;28;21020;-81
2023/02/10 19:28:50;;;;;;;24.03;16.73;;;9.20;97.60;;;;;;5047731;28;20498;-80
2023/02/10 19:31:17;;;;;;;25.93;19.17;;;9.10;97.30;;;;;;5048910;28;20448;-81
2023/02/10 19:33:48;;;;;;;27.30;18.77;;;8.90;97.50;;;;;;5053728;28;20479;-80
2023/02/10 19:36:17;;;;;;;26.40;17.93;;;9.20;97.70;;;;;;5058163;28;20480;-80
2023/02/10 19:38:44;;;;;;;27.10;17.13;;;9.40;97.20;;;;;;5055233;28;20504;-82
2023/02/10 19:41:17;;;;;;;26.40;17.67;;;9.40;97.00;;;;;;5051158;28;21812;-81
2023/02/10 19:43:45;;;;;;;25.77;18.20;;;9.40;96.80;;;;;;5045601;28;20486;-81
2023/02/10 19:46:14;;;;;;;31.40;18.33;;;9.40;96.80;;;;;;5046450;28;20852;-81
2023/02/10 19:48:43;;;;;;;32.43;17.80;;;9.30;96.70;;;;;;5044823;28;20452;-80
2023/02/10 19:51:13;;;;;;;26.00;17.30;;;9.20;96.80;;;;;;5047194;28;20460;-81
2023/02/10 19:53:40;;;;;;;30.87;18.70;;;9.10;97.00;;;;;;5047563;28;20479;-80
2023/02/10 19:56:08;;;;;;;32.40;19.80;;;9.00;97.10;;;;;;5041621;28;20663;-81
2023/02/10 19:58:36;;;;;;;29.23;19.57;;;9.00;97.20;;;;;;5042593;28;20466;-81
2023/02/10 20:01:06;;;;;;;26.77;18.10;;;8.90;97.50;;;;;;5062277;28;20461;-81
2023/02/10 20:03:34;;;;;;;34.13;19.47;;;8.90;97.80;;;;;;5047048;28;20555;-81
2023/02/10 20:06:03;;;;;;;34.50;17.73;;;8.90;97.60;;;;;;5050416;28;20461;-80
2023/02/10 20:08:30;;;;;;;29.03;18.80;;;8.90;98.00;;;;;;5051772;28;20543;-81